Time;durP1;ratioP1;P1;durP2;ratioP2;P2;SDS_P1;SDS_P2;PMS_P1;PMS_P2;Temp;Humidity;BMP_temperature;BMP_pressure;BME280_temperature;BME280_humidity;BME280_pressure;Samples;Min_cycle;Max_cycle;Signal;HPM_P1;HPM_P2
2022/10/10 00:01:30;;;;;;;100.95;91.17;;;;;;;3.12;80.36;101471.20;1747524;81;25694;-69
2022/10/10 00:03:57;;;;;;;47.17;25.97;;;;;;;3.09;80.25;101469.78;1728821;81;25535;-69
2022/10/10 00:06:24;;;;;;;45.45;25.12;;;;;;;3.06;80.29;101470.77;1740264;81;26823;-68
2022/10/10 00:08:51;;;;;;;47.43;24.72;;;;;;;3.05;80.36;101469.12;1733027;81;25715;-68
2022/10/10 00:11:21;;;;;;;53.28;26.10;;;;;;;3.02;80.31;101468.27;1707317;82;25655;-69
2022/10/10 00:13:48;;;;;;;44.30;24.75;;;;;;;3.01;80.31;101474.66;1728447;82;25586;-69
2022/10/10 00:16:15;;;;;;;51.90;25.05;;;;;;;2.98;80.44;101467.92;1720988;82;25641;-69
2022/10/10 00:18:42;;;;;;;50.15;27.00;;;;;;;2.96;80.66;101460.13;1733049;81;27463;-69
2022/10/10 00:21:09;;;;;;;50.00;26.07;;;;;;;2.95;80.69;101461.69;1737288;81;25855;-68
2022/10/10 00:23:36;;;;;;;49.83;25.92;;;;;;;2.94;80.36;101465.39;1743911;81;25619;-69
2022/10/10 00:26:03;;;;;;;46.68;25.37;;;;;;;2.92;80.44;101461.61;1745484;81;26536;-69
2022/10/10 00:28:29;;;;;;;51.63;26.50;;;;;;;2.90;80.28;101467.72;1735535;81;25590;-69
2022/10/10 00:30:56;;;;;;;54.55;27.90;;;;;;;2.89;80.49;101465.27;1734496;81;27320;-69
2022/10/10 00:33:22;;;;;;;53.25;28.52;;;;;;;2.88;80.47;101467.14;1743759;81;25753;-69
2022/10/10 00:35:49;;;;;;;58.45;30.97;;;;;;;2.86;80.74;101466.56;1721873;81;25401;-68
2022/10/10 00:38:15;;;;;;;52.27;27.60;;;;;;;2.85;80.77;101458.23;1682877;84;26234;-69
2022/10/10 00:40:55;;;;;;;59.50;29.52;;;;;;;2.85;80.92;101464.11;1725603;81;25479;-69
2022/10/10 00:43:25;;;;;;;52.78;29.37;;;;;;;2.84;80.97;101461.94;1725602;82;27403;-69
2022/10/10 00:45:52;;;;;;;57.78;31.33;;;;;;;2.83;80.72;101463.50;1734387;81;25734;-69
2022/10/10 00:48:39;;;;;;;60.60;30.75;;;;;;;2.80;80.90;101465.59;1755721;81;25641;-69
2022/10/10 00:51:15;;;;;;;60.78;29.72;;;;;;;2.78;80.67;101466.88;1755597;81;25711;-69
2022/10/10 00:53:49;;;;;;;65.40;32.40;;;;;;;2.74;80.82;101460.34;1760185;79;25469;-67
2022/10/10 00:56:21;;;;;;;56.55;29.37;;;;;;;2.74;80.72;101461.17;1790547;80;27389;-69
2022/10/10 00:58:51;;;;;;;62.13;32.60;;;;;;;2.70;81.10;101449.30;1760828;80;25574;-69
2022/10/10 01:01:18;;;;;;;55.78;29.20;;;;;;;2.70;81.52;101454.64;1771901;80;25622;-68
2022/10/10 01:03:44;;;;;;;60.58;28.98;;;;;;;2.70;81.57;101451.97;1777908;80;25720;-69
2022/10/10 01:06:10;;;;;;;51.53;27.73;;;;;;;2.68;81.51;101454.06;1763798;78;25435;-69
2022/10/10 01:08:37;;;;;;;54.50;28.62;;;;;;;2.68;81.46;101452.72;1764291;80;27296;-69
2022/10/10 01:11:39;;;;;;;51.58;26.85;;;;;;;2.67;81.58;101453.75;1778533;79;25811;-68
2022/10/10 01:14:14;;;;;;;48.25;26.52;;;;;;;2.67;82.09;101455.09;1753135;79;25631;-69
2022/10/10 01:16:51;;;;;;;52.20;26.55;;;;;;;2.68;82.07;101454.59;1771335;80;26324;-69
2022/10/10 01:19:40;;;;;;;49.45;25.90;;;;;;;2.67;81.95;101456.42;1756558;78;25440;-68
2022/10/10 01:22:15;;;;;;;48.92;26.00;;;;;;;2.67;81.86;101457.77;1756135;78;33027;-69
2022/10/10 01:25:08;;;;;;;48.58;26.97;;;;;;;2.67;81.89;101455.09;1769694;80;25604;-68
2022/10/10 01:27:55;;;;;;;48.33;24.55;;;;;;;2.65;81.98;101449.70;1766520;80;25587;-68
2022/10/10 01:30:23;;;;;;;106.20;95.67;;;;;;;2.64;81.93;101455.57;1755262;78;25793;-68
2022/10/10 01:33:14;;;;;;;111.60;100.65;;;;;;;2.61;82.11;101444.80;1767075;79;25592;-68
2022/10/10 01:35:52;;;;;;;56.35;28.25;;;;;;;2.63;82.23;101445.91;1763441;80;27859;-67
2022/10/10 01:39:01;;;;;;;53.73;30.12;;;;;;;2.64;82.33;101458.73;1773169;80;25687;-70
2022/10/10 01:41:36;;;;;;;56.40;29.07;;;;;;;2.64;82.59;101453.40;1766044;80;25673;-68
2022/10/10 01:44:02;;;;;;;57.05;30.37;;;;;;;2.61;82.37;101453.34;1749617;80;25633;-68
2022/10/10 01:46:28;;;;;;;57.40;30.95;;;;;;;2.61;82.30;101457.35;1778001;79;25692;-69
2022/10/10 01:48:57;;;;;;;56.35;30.25;;;;;;;2.59;82.22;101457.58;1764422;80;27391;-69
2022/10/10 01:51:50;;;;;;;55.80;28.83;;;;;;;2.57;82.21;101458.33;1772633;80;25601;-68
2022/10/10 01:54:56;;;;;;;53.10;29.20;;;;;;;2.55;82.30;101448.38;1756158;80;25705;-69
2022/10/10 01:57:52;;;;;;;56.42;28.62;;;;;;;2.53;82.41;101446.98;1751501;80;25607;-68
2022/10/10 02:00:18;;;;;;;45.67;27.00;;;;;;;2.52;82.37;101456.86;1736445;81;25476;-69
2022/10/10 02:02:58;;;;;;;48.70;26.15;;;;;;;2.48;82.72;101450.86;1761397;81;28138;-68
2022/10/10 02:05:48;;;;;;;90.07;81.20;;;;;;;2.45;82.44;101449.97;1741463;81;25754;-68
2022/10/10 02:08:21;;;;;;;;;;;;;;;2.43;82.77;101448.85;1774449;79;25418;-69
2022/10/10 02:10:55;;;;;;;82.17;73.57;;;;;;;2.44;82.68;101445.16;1761035;80;25747;-69
2022/10/10 02:13:27;;;;;;;65.15;52.58;;;;;;;2.44;82.68;101445.16;1774549;80;25611;-68
2022/10/10 02:15:57;;;;;;;92.62;83.45;;;;;;;2.43;82.90;101443.51;1740378;80;27311;-68
2022/10/10 02:18:28;;;;;;;58.60;49.63;;;;;;;2.42;82.95;101444.57;1746356;81;25786;-69
2022/10/10 02:20:55;;;;;;;101.42;91.90;;;;;;;2.42;83.23;101444.04;1747744;81;25650;-69
2022/10/10 02:23:22;;;;;;;100.80;91.53;;;;;;;2.39;83.19;101435.14;1742690;81;26420;-70
2022/10/10 02:25:52;;;;;;;100.82;90.80;;;;;;;2.37;82.97;101441.77;1777512;80;25605;-69
2022/10/10 02:28:27;;;;;;;99.40;89.67;;;;;;;2.33;83.20;101437.36;1811268;79;27411;-68
2022/10/10 02:30:58;;;;;;;101.67;91.70;;;;;;;2.30;83.32;101440.52;1779313;78;25633;-69
2022/10/10 02:33:32;;;;;;;96.37;86.67;;;;;;;2.30;83.29;101446.35;1767852;81;25470;-69
2022/10/10 02:36:00;;;;;;;37.05;20.15;;;;;;;2.29;83.71;101444.73;1774425;80;25633;-69
2022/10/10 02:38:29;;;;;;;40.30;20.90;;;;;;;2.32;83.67;101442.43;1762769;80;25614;-69
2022/10/10 02:40:57;;;;;;;39.93;20.57;;;;;;;2.30;83.68;101453.03;1767306;80;27981;-69
2022/10/10 02:43:24;;;;;;;36.48;21.23;;;;;;;2.28;83.71;101454.58;1733418;81;25642;-69
2022/10/10 02:45:50;;;;;;;40.90;20.65;;;;;;;2.27;84.00;101454.30;1752209;80;25564;-69
2022/10/10 02:48:16;;;;;;;43.15;21.93;;;;;;;2.26;84.06;101450.00;1722100;81;25679;-69
2022/10/10 02:50:43;;;;;;;40.48;21.42;;;;;;;2.27;84.36;101454.30;1750936;80;25738;-68
2022/10/10 02:53:09;;;;;;;35.55;19.95;;;;;;;2.28;84.46;101449.24;1773255;78;28122;-69
2022/10/10 02:55:36;;;;;;;39.75;19.65;;;;;;;2.29;84.47;101450.08;1745427;79;25510;-69
2022/10/10 02:58:02;;;;;;;38.83;20.65;;;;;;;2.31;84.51;101454.67;1770150;79;25549;-69
2022/10/10 03:00:28;;;;;;;41.18;19.45;;;;;;;2.32;84.83;101446.97;1762811;80;25619;-70
2022/10/10 03:02:55;;;;;;;44.83;22.87;;;;;;;2.34;84.90;101456.36;1761735;80;25420;-69
2022/10/10 03:05:21;;;;;;;47.88;25.60;;;;;;;2.33;84.86;101446.71;1760857;80;27421;-69
2022/10/10 03:07:47;;;;;;;38.25;19.98;;;;;;;2.32;84.98;101430.95;1763618;81;25531;-69
2022/10/10 03:10:13;;;;;;;36.53;20.13;;;;;;;2.32;85.03;101425.61;1752192;80;30197;-69
2022/10/10 03:12:39;;;;;;;38.55;21.12;;;;;;;2.35;85.24;101421.13;1764216;81;34874;-69
2022/10/10 03:15:07;;;;;;;39.53;21.60;;;;;;;2.35;85.14;101427.30;1753523;81;25649;-69
2022/10/10 03:17:33;;;;;;;40.60;20.43;;;;;;;2.34;84.93;101424.33;1766275;80;27517;-67
2022/10/10 03:19:59;;;;;;;40.70;21.10;;;;;;;2.36;85.01;101421.43;1767385;80;32103;-67
2022/10/10 03:22:25;;;;;;;41.08;20.52;;;;;;;2.34;84.90;101426.99;1770024;79;25693;-69
2022/10/10 03:24:51;;;;;;;37.42;19.42;;;;;;;2.32;85.01;101429.08;1750609;80;25781;-68
2022/10/10 03:27:17;;;;;;;40.85;21.23;;;;;;;2.31;85.30;101421.29;1752680;80;25666;-68
2022/10/10 03:29:43;;;;;;;45.43;20.45;;;;;;;2.31;85.43;101414.62;1762760;80;27381;-68
2022/10/10 03:32:09;;;;;;;38.85;19.27;;;;;;;2.33;85.71;101419.20;1758762;80;25640;-68
2022/10/10 03:34:35;;;;;;;43.13;19.80;;;;;;;2.31;86.02;101420.77;1751161;80;30288;-68
2022/10/10 03:37:01;;;;;;;35.73;18.23;;;;;;;2.32;86.22;101414.92;1769694;80;25684;-68
2022/10/10 03:39:28;;;;;;;37.05;19.77;;;;;;;2.32;86.31;101422.94;1764389;80;25457;-69
2022/10/10 03:41:54;;;;;;;36.42;17.90;;;;;;;2.33;86.20;101424.02;1744914;79;28279;-68
2022/10/10 03:44:20;;;;;;;37.03;19.85;;;;;;;2.34;86.24;101424.85;1736143;81;27214;-70
2022/10/10 03:46:46;;;;;;;35.52;19.30;;;;;;;2.33;86.22;101421.34;1736308;80;25421;-71
2022/10/10 03:49:13;;;;;;;40.25;19.10;;;;;;;2.34;86.07;101433.67;1766061;79;25789;-71
2022/10/10 03:51:39;;;;;;;33.45;18.17;;;;;;;2.34;86.21;101428.86;1749047;80;25562;-71
2022/10/10 03:54:05;;;;;;;96.10;87.37;;;;;;;2.34;86.26;101434.20;1763219;79;27891;-71
2022/10/10 03:56:32;;;;;;;49.77;30.20;;;;;;;2.34;86.37;101434.20;1751732;80;25392;-71
2022/10/10 03:58:59;;;;;;;40.65;22.48;;;;;;;2.36;86.45;101437.45;1761866;80;25597;-71
2022/10/10 04:01:27;;;;;;;59.23;45.98;;;;;;;2.32;86.35;101429.08;1771215;80;25680;-69
2022/10/10 04:03:53;;;;;;;104.80;95.35;;;;;;;2.36;86.33;101432.11;1774507;80;25378;-69
2022/10/10 04:06:19;;;;;;;33.90;17.55;;;;;;;2.33;86.28;101425.88;1769395;80;27425;-70
2022/10/10 04:08:45;;;;;;;33.02;17.15;;;;;;;2.34;86.21;101435.53;1775967;80;25451;-71
2022/10/10 04:11:11;;;;;;;35.40;18.42;;;;;;;2.33;86.20;101429.36;1768675;79;25573;-69
2022/10/10 04:13:38;;;;;;;33.53;18.25;;;;;;;2.33;86.28;101424.55;1778191;80;25664;-70
2022/10/10 04:16:04;;;;;;;43.60;20.50;;;;;;;2.32;86.39;101421.07;1767579;79;25467;-69
2022/10/10 04:18:31;;;;;;;50.48;19.45;;;;;;;2.30;86.29;101417.81;1766430;80;27341;-69
2022/10/10 04:21:03;;;;;;;33.65;18.73;;;;;;;2.27;86.21;101424.94;1771058;80;25615;-69
2022/10/10 04:23:30;;;;;;;40.60;18.07;;;;;;;2.24;86.25;101424.85;1769509;80;25680;-69
2022/10/10 04:25:56;;;;;;;40.17;20.92;;;;;;;2.25;86.46;101419.02;1768271;80;26320;-69
2022/10/10 04:28:22;;;;;;;45.90;24.87;;;;;;;2.23;86.49;101420.58;1771464;80;25573;-69
2022/10/10 04:30:49;;;;;;;39.70;19.32;;;;;;;2.23;86.48;101419.23;1770628;79;28039;-69
2022/10/10 04:33:15;;;;;;;33.63;17.50;;;;;;;2.22;86.35;101421.60;1767172;80;25439;-68
2022/10/10 04:35:41;;;;;;;31.73;17.35;;;;;;;2.20;86.27;101409.00;1754241;80;25496;-69
2022/10/10 04:38:07;;;;;;;31.48;16.00;;;;;;;2.20;86.16;101414.88;1769235;79;25734;-69
2022/10/10 04:40:36;;;;;;;77.65;70.40;;;;;;;2.17;85.94;101417.45;1757498;81;25666;-70
2022/10/10 04:43:03;;;;;;;38.42;27.35;;;;;;;2.13;85.84;101421.62;1736369;80;27345;-69
2022/10/10 04:45:29;;;;;;;95.60;87.17;;;;;;;2.10;85.73;101422.07;1761759;80;25432;-69
2022/10/10 04:47:56;;;;;;;29.18;15.08;;;;;;;2.07;85.89;101418.51;1753123;80;25624;-70
2022/10/10 04:50:23;;;;;;;32.03;15.98;;;;;;;2.07;85.66;101427.85;1737796;79;25536;-69
2022/10/10 04:52:49;;;;;;;30.75;15.50;;;;;;;2.04;85.44;101432.30;1766734;79;25462;-70
2022/10/10 04:55:16;;;;;;;26.02;14.30;;;;;;;2.02;85.66;101428.52;1746388;81;27304;-69
2022/10/10 04:57:42;;;;;;;28.75;14.47;;;;;;;2.02;85.86;101430.37;1765805;79;25784;-69
2022/10/10 05:00:11;;;;;;;29.12;15.43;;;;;;;2.00;85.73;101425.79;1749091;80;25586;-70
2022/10/10 05:02:37;;;;;;;34.65;15.85;;;;;;;1.98;85.73;101424.67;1770521;80;25656;-69
2022/10/10 05:05:05;;;;;;;24.95;12.95;;;;;;;1.94;85.65;101422.67;1773551;80;25641;-69
2022/10/10 05:07:31;;;;;;;31.60;15.18;;;;;;;1.94;85.67;101421.34;1769901;80;27331;-69
2022/10/10 05:09:58;;;;;;;29.37;16.50;;;;;;;1.96;85.79;101424.09;1769082;80;25556;-68
2022/10/10 05:12:24;;;;;;;22.55;14.65;;;;;;;1.95;85.75;101425.64;1768579;80;25382;-69
2022/10/10 05:14:52;;;;;;;28.60;15.78;;;;;;;1.96;86.03;101416.58;1758338;80;27836;-68
2022/10/10 05:17:19;;;;;;;27.17;14.85;;;;;;;1.96;85.96;101413.42;1772174;80;25646;-69
2022/10/10 05:19:45;;;;;;;36.05;28.55;;;;;;;1.97;85.99;101420.36;1759986;79;27322;-68
2022/10/10 05:22:11;;;;;;;27.90;16.35;;;;;;;1.98;85.95;101418.00;1767467;80;25715;-68
2022/10/10 05:24:39;;;;;;;26.25;14.65;;;;;;;2.00;85.98;101425.79;1748795;80;25561;-69
2022/10/10 05:27:06;;;;;;;29.07;16.02;;;;;;;2.02;85.78;101424.52;1776529;80;26188;-70
2022/10/10 05:29:32;;;;;;;27.60;16.93;;;;;;;2.04;85.65;101422.95;1774143;80;25754;-70
2022/10/10 05:31:58;;;;;;;28.35;16.80;;;;;;;2.07;85.86;101416.37;1778083;80;27354;-69
2022/10/10 05:34:24;;;;;;;33.20;17.85;;;;;;;2.08;85.79;101402.80;1774082;80;25674;-70
2022/10/10 05:36:50;;;;;;;32.45;17.37;;;;;;;2.12;85.88;101409.84;1775463;80;25562;-70
2022/10/10 05:39:16;;;;;;;30.77;16.97;;;;;;;2.14;85.82;101410.42;1737846;81;25740;-69
2022/10/10 05:41:42;;;;;;;32.55;18.65;;;;;;;2.13;85.91;101407.45;1742537;81;26215;-70
2022/10/10 05:44:09;;;;;;;29.50;16.82;;;;;;;2.16;86.05;101411.00;1779383;78;27363;-70
2022/10/10 05:46:35;;;;;;;30.02;17.87;;;;;;;2.16;85.94;101410.51;1733104;80;25694;-70
2022/10/10 05:49:05;;;;;;;29.63;17.80;;;;;;;2.18;86.12;101409.75;1760651;80;25254;-70
2022/10/10 05:51:33;;;;;;;;;;;;;;;2.20;86.25;101405.00;1785379;80;25611;-71
2022/10/10 05:54:04;;;;;;;28.95;15.32;;;;;;;2.25;86.06;101408.33;1782795;80;25397;-71
2022/10/10 05:56:34;;;;;;;29.57;16.42;;;;;;;2.27;86.20;101410.78;1770459;80;27793;-70
2022/10/10 05:59:04;;;;;;;28.40;15.85;;;;;;;2.32;86.52;101402.91;1773014;79;25590;-69
2022/10/10 06:01:31;;;;;;;49.00;43.98;;;;;;;2.38;86.68;101409.50;1773905;79;26319;-69
2022/10/10 06:04:02;;;;;;;28.32;15.25;;;;;;;2.43;86.98;101399.45;1776996;79;25698;-70
2022/10/10 06:06:29;;;;;;;46.68;41.75;;;;;;;2.49;87.04;101391.06;1769680;79;25213;-66
2022/10/10 06:08:56;;;;;;;89.30;81.87;;;;;;;2.56;87.33;101389.11;1790948;79;27378;-66
2022/10/10 06:11:23;;;;;;;28.07;18.95;;;;;;;2.62;87.41;101389.51;1781072;79;25794;-66
2022/10/10 06:13:53;;;;;;;93.52;85.40;;;;;;;2.70;87.56;101393.19;1799929;78;25788;-67
2022/10/10 06:16:18;;;;;;;93.65;85.83;;;;;;;2.77;87.80;101387.75;1806405;78;25781;-66
2022/10/10 06:18:44;;;;;;;93.65;85.87;;;;;;;2.87;88.25;101394.67;1768058;79;25755;-66
2022/10/10 06:21:32;;;;;;;97.35;89.37;;;;;;;3.02;88.96;101388.89;1800397;78;27311;-66
2022/10/10 06:24:00;;;;;;;7.20;6.83;;;;;;;3.19;90.23;101394.36;1610656;89;25840;-66
2022/10/10 06:26:27;;;;;;;16.20;12.00;;;;;;;;;;1609539;89;25831;-68
2022/10/10 06:28:54;;;;;;;41.83;35.63;;;;;;;;;;1597112;89;25851;-66
2022/10/10 06:31:21;;;;;;;26.12;13.72;;;;;;;;;;1616975;88;25592;-66
2022/10/10 06:33:48;;;;;;;32.53;16.00;;;;;;;;;;1615009;88;27369;-67
2022/10/10 06:36:16;;;;;;;31.80;15.75;;;;;;;;;;1614909;88;25660;-67
2022/10/10 06:38:44;;;;;;;35.63;16.85;;;;;;;;;;1615113;88;25583;-69
2022/10/10 06:41:14;;;;;;;35.52;17.42;;;;;;;;;;1615328;88;26311;-68
2022/10/10 06:43:41;;;;;;;;;;;;;;;;;;1617510;88;25428;-69
2022/10/10 06:46:09;;;;;;;27.40;15.60;;;;;;;;;;1614960;88;27286;-68
2022/10/10 06:48:36;;;;;;;30.95;18.67;;;;;;;;;;1631836;87;25728;-67
2022/10/10 06:51:06;;;;;;;35.08;20.20;;;;;;;;;;1641032;86;25387;-67
2022/10/10 06:53:34;;;;;;;36.50;19.42;;;;;;;;;;1641265;86;27784;-67
2022/10/10 06:56:02;;;;;;;28.95;18.55;;;;;;;;;;1618255;87;25442;-67
2022/10/10 06:58:30;;;;;;;33.90;18.12;;;;;;;;;;1663155;85;26921;-67
2022/10/10 07:01:00;;;;;;;28.38;17.42;;;;;;;;;;1630046;86;25625;-67
2022/10/10 07:03:28;;;;;;;29.87;15.55;;;;;;;;;;1658799;85;25548;-67
2022/10/10 07:05:58;;;;;;;23.87;15.43;;;;;;;;;;1656377;84;27808;-67
2022/10/10 07:08:27;;;;;;;38.42;34.18;;;;;;;;;;1674405;84;25495;-67
2022/10/10 07:10:55;;;;;;;27.35;12.93;;;;;;;;;;1674631;84;27261;-67
2022/10/10 07:13:23;;;;;;;33.70;27.95;;;;;;;;;;1674278;85;25643;-67
2022/10/10 07:15:49;;;;;;;28.77;22.13;;;;;;;;;;1674430;84;25399;-67
2022/10/10 07:18:17;;;;;;;24.92;14.83;;;;;;;;;;1670576;84;25619;-67
2022/10/10 07:20:45;;;;;;;24.07;15.50;;;;;;;;;;1660628;85;25326;-67
2022/10/10 07:23:13;;;;;;;24.25;14.90;;;;;;;;;;1660647;84;27450;-67
2022/10/10 07:25:42;;;;;;;21.90;14.13;;;;;;;;;;1702757;83;26155;-67
2022/10/10 07:28:10;;;;;;;22.30;13.78;;;;;;;;;;1660926;85;25499;-67
2022/10/10 07:30:44;;;;;;;22.10;14.73;;;;;;;;;;1705020;83;25634;-67
2022/10/10 07:33:13;;;;;;;21.33;13.48;;;;;;;;;;1705000;83;25352;-67
2022/10/10 07:35:40;;;;;;;23.37;13.97;;;;;;;;;;1671355;85;27161;-67
2022/10/10 07:38:09;;;;;;;21.25;13.98;;;;;;;;;;1670137;85;26680;-66
2022/10/10 07:40:39;;;;;;;22.73;13.38;;;;;;;;;;1684063;84;25554;-66
2022/10/10 07:43:06;;;;;;;18.90;12.98;;;;;;;;;;1678660;84;26526;-65
2022/10/10 07:45:35;;;;;;;21.85;12.28;;;;;;;;;;1690978;84;25600;-66
2022/10/10 07:49:16;;;;;;;17.73;12.90;;;;;;;14.16;70.63;101403.28;1863111;76;25539;-68
2022/10/10 07:51:42;;;;;;;22.07;12.63;;;;;;;13.91;71.01;101397.30;1823896;78;25550;-67
2022/10/10 07:54:09;;;;;;;20.85;12.88;;;;;;;13.71;67.88;101403.95;1823878;78;28233;-67
2022/10/10 07:56:35;;;;;;;20.90;11.93;;;;;;;13.51;69.73;101392.13;1843707;77;25874;-69
2022/10/10 07:59:03;;;;;;;55.45;51.00;;;;;;;13.89;71.52;101391.90;1843265;77;25407;-67
2022/10/10 08:01:29;;;;;;;19.17;11.70;;;;;;;14.19;71.79;101383.06;1827628;77;27023;-66
2022/10/10 08:03:56;;;;;;;87.15;80.57;;;;;;;14.66;69.16;101386.09;1836525;77;25545;-69
2022/10/10 08:06:23;;;;;;;86.92;80.57;;;;;;;14.64;68.77;101383.71;1779044;80;27616;-68
2022/10/10 08:08:49;;;;;;;88.17;81.35;;;;;;;14.62;67.75;101379.67;1768695;81;25688;-67
2022/10/10 08:11:17;;;;;;;18.60;11.97;;;;;;;14.50;66.02;101375.55;1796168;79;25594;-68
2022/10/10 08:13:43;;;;;;;19.77;12.98;;;;;;;14.59;66.79;101381.65;1794286;79;26100;-68
2022/10/10 08:16:09;;;;;;;17.27;11.75;;;;;;;14.63;66.74;101374.48;1793952;78;25638;-68
2022/10/10 08:18:36;;;;;;;20.27;12.53;;;;;;;14.62;65.31;101372.87;1797442;79;27470;-67
2022/10/10 08:21:10;;;;;;;17.98;11.53;;;;;;;14.53;64.83;101357.81;1793240;78;25684;-67
2022/10/10 08:23:37;;;;;;;18.70;11.15;;;;;;;14.52;66.16;101363.81;1794169;79;25452;-67
2022/10/10 08:26:06;;;;;;;16.65;12.20;;;;;;;14.87;66.47;101370.07;1783687;79;26096;-68
2022/10/10 08:28:35;;;;;;;17.60;11.63;;;;;;;14.91;64.25;101366.42;1781907;80;25850;-66
2022/10/10 08:31:11;;;;;;;15.25;11.08;;;;;;;15.02;63.71;101379.77;1760474;80;27488;-68
2022/10/10 08:33:39;;;;;;;18.17;11.48;;;;;;;15.07;64.60;101353.75;1761492;80;25665;-67
2022/10/10 08:36:11;;;;;;;17.70;11.12;;;;;;;15.44;65.03;101356.55;1773868;80;25752;-68
2022/10/10 08:38:37;;;;;;;14.35;9.50;;;;;;;15.57;64.13;101358.10;1766164;80;25630;-67
2022/10/10 08:41:16;;;;;;;15.35;9.93;;;;;;;15.92;63.01;101353.55;1760259;81;25633;-70
2022/10/10 08:44:06;;;;;;;14.10;9.68;;;;;;;15.93;62.38;101350.25;1760301;80;28051;-69
2022/10/10 08:46:50;;;;;;;15.68;10.63;;;;;;;16.10;61.48;101350.27;1711643;83;25913;-67
2022/10/10 08:49:49;;;;;;;12.88;8.48;;;;;;;16.29;59.09;101358.70;1773342;80;25648;-68
2022/10/10 08:52:48;;;;;;;13.80;9.65;;;;;;;16.44;61.03;101356.27;1769858;80;25926;-68
2022/10/10 08:55:33;;;;;;;13.15;8.25;;;;;;;16.55;59.74;101340.38;1763069;80;26037;-67
2022/10/10 08:58:24;;;;;;;14.38;8.68;;;;;;;16.56;59.50;101341.95;1769411;80;27489;-67
2022/10/10 09:01:13;;;;;;;16.50;8.15;;;;;;;16.75;59.80;101338.89;1771552;80;25767;-67
2022/10/10 09:03:43;;;;;;;;;;;;;;;16.97;58.82;101352.09;1774778;80;25820;-67
2022/10/10 09:06:42;;;;;;;10.10;8.48;;;;;;;16.90;54.98;101359.43;1742573;81;25521;-68
2022/10/10 09:09:41;;;;;;;13.20;7.95;;;;;;;16.60;55.32;101331.19;1710363;82;25428;-67
2022/10/10 09:12:39;;;;;;;13.75;8.30;;;;;;;16.62;57.50;101327.02;1711229;83;27548;-68
2022/10/10 09:15:25;;;;;;;12.95;8.28;;;;;;;16.85;57.59;101331.48;1542595;92;26029;-67
2022/10/10 09:18:16;;;;;;;13.18;8.53;;;;;;;16.90;54.46;101332.11;1543237;91;25502;-68
2022/10/10 09:21:05;;;;;;;13.48;6.90;;;;;;;16.78;55.02;101331.95;1542929;92;25682;-68
2022/10/10 09:23:49;;;;;;;11.47;7.33;;;;;;;17.14;55.91;101314.33;1547774;91;25541;-68
2022/10/10 09:26:26;;;;;;;12.30;7.58;;;;;;;17.28;55.82;101317.66;1466547;96;27528;-68
2022/10/10 09:29:24;;;;;;;11.78;7.78;;;;;;;17.43;55.55;101316.84;1465584;96;25901;-68
2022/10/10 09:31:59;;;;;;;10.15;7.90;;;;;;;17.72;54.97;101319.57;1485075;95;25958;-66
2022/10/10 09:34:31;;;;;;;11.28;6.62;;;;;;;17.77;53.95;101312.28;1487629;95;25523;-68
2022/10/10 09:37:01;;;;;;;7.15;6.12;;;;;;;17.66;52.45;101322.83;1487076;95;25639;-67
2022/10/10 09:39:37;;;;;;;8.70;5.87;;;;;;;17.67;54.83;101314.84;1487923;95;28365;-69
2022/10/10 09:42:13;;;;;;;11.18;5.97;;;;;;;18.05;54.78;101321.60;1483930;95;25783;-69
2022/10/10 09:44:42;;;;;;;7.72;6.03;;;;;;;18.34;53.19;101329.48;1490965;95;25744;-68
2022/10/10 09:47:16;;;;;;;32.85;30.52;;;;;;;18.39;51.08;101305.17;1511491;94;25862;-68
2022/10/10 09:49:44;;;;;;;7.40;5.42;;;;;;;18.33;50.81;101314.76;1495619;95;25579;-67
2022/10/10 09:52:23;;;;;;;7.75;4.58;;;;;;;18.37;50.67;101300.61;1558731;88;27609;-67
2022/10/10 09:55:04;;;;;;;5.78;3.90;;;;;;;18.50;51.27;101295.98;1590136;88;25587;-67
2022/10/10 09:57:37;;;;;;;29.45;27.42;;;;;;;18.69;51.09;101291.34;1610352;87;25869;-67
2022/10/10 10:00:22;;;;;;;14.40;13.05;;;;;;;18.92;51.33;101284.32;1609950;88;26113;-67
2022/10/10 10:03:05;;;;;;;48.38;45.35;;;;;;;19.37;51.43;101288.08;1655119;81;25857;-68
2022/10/10 10:05:34;;;;;;;47.15;44.03;;;;;;;19.70;49.63;101287.91;1648572;85;27674;-67
2022/10/10 10:08:01;;;;;;;5.27;3.47;;;;;;;19.97;51.08;101281.44;1652732;85;25797;-68
2022/10/10 10:10:31;;;;;;;13.13;9.48;;;;;;;20.55;50.36;101288.48;1640245;85;25704;-67
2022/10/10 10:12:58;;;;;;;8.08;4.20;;;;;;;20.76;49.51;101273.96;1647329;85;25939;-67
2022/10/10 10:15:30;;;;;;;63.23;59.33;;;;;;;20.87;47.06;101281.91;1648291;85;25659;-67
2022/10/10 10:18:20;;;;;;;5.65;3.75;;;;;;;20.52;46.37;101283.93;1626538;85;29614;-67
2022/10/10 10:20:52;;;;;;;6.83;3.80;;;;;;;20.41;46.75;101285.59;1642809;86;25536;-68
2022/10/10 10:23:27;;;;;;;4.78;3.50;;;;;;;20.32;47.38;101278.09;1651922;85;25541;-69
2022/10/10 10:26:14;;;;;;;4.25;3.33;;;;;;;20.52;46.43;101270.77;1650949;85;25689;-67
2022/10/10 10:28:42;;;;;;;5.67;3.70;;;;;;;20.45;46.31;101271.38;1652083;85;25562;-66
2022/10/10 10:31:27;;;;;;;7.50;3.72;;;;;;;20.51;44.53;101267.20;1666144;85;28135;-69
2022/10/10 10:34:12;;;;;;;3.95;3.58;;;;;;;20.19;46.00;101255.95;1652947;85;25987;-69
2022/10/10 10:37:17;;;;;;;8.30;3.90;;;;;;;20.55;46.71;101247.27;1637029;86;25643;-69
2022/10/10 10:39:59;;;;;;;4.33;3.75;;;;;;;20.99;47.13;101256.23;1641161;85;25638;-68
2022/10/10 10:42:54;;;;;;;5.50;3.65;;;;;;;21.05;45.80;101255.41;1686358;83;25485;-68
2022/10/10 10:46:01;;;;;;;11.35;3.58;;;;;;;21.05;46.24;101243.81;1724983;83;27287;-68
2022/10/10 10:48:47;;;;;;;6.20;3.27;;;;;;;21.14;45.39;101242.83;1674513;84;25460;-70
2022/10/10 10:51:40;;;;;;;6.20;3.25;;;;;;;20.89;44.13;101230.66;1695996;84;25634;-69
2022/10/10 10:54:34;;;;;;;4.53;3.37;;;;;;;20.95;45.37;101236.70;1672206;84;25591;-71
2022/10/10 10:57:36;;;;;;;4.40;3.08;;;;;;;21.15;45.42;101230.09;1688216;83;25744;-68
2022/10/10 11:00:11;;;;;;;5.08;3.22;;;;;;;21.39;45.39;101231.80;1691120;84;27409;-69
2022/10/10 11:03:11;;;;;;;4.72;3.55;;;;;;;21.69;44.19;101231.29;1694845;84;25613;-69
2022/10/10 11:05:53;;;;;;;4.62;3.65;;;;;;;21.80;44.07;101225.40;1690589;84;25425;-68
2022/10/10 11:08:52;;;;;;;4.40;3.25;;;;;;;22.05;43.46;101224.28;1695259;84;25430;-69
2022/10/10 11:11:52;;;;;;;3.87;2.80;;;;;;;22.12;43.42;101210.08;1695548;84;25504;-68
2022/10/10 11:14:43;;;;;;;3.30;3.00;;;;;;;22.38;42.82;101205.83;1676128;84;27596;-69
2022/10/10 11:17:39;;;;;;;5.03;2.60;;;;;;;22.69;43.43;101202.00;1696709;83;26252;-68
2022/10/10 11:20:17;;;;;;;5.87;3.02;;;;;;;22.89;40.23;101202.70;1696518;84;25452;-67
2022/10/10 11:22:53;;;;;;;9.58;2.87;;;;;;;22.78;41.80;101196.22;1696801;83;25980;-69
2022/10/10 11:25:52;;;;;;;6.33;2.83;;;;;;;22.90;41.62;101188.32;1701827;83;25577;-68
2022/10/10 11:28:39;;;;;;;8.28;2.85;;;;;;;22.93;41.42;101189.78;1714727;83;28151;-68
2022/10/10 11:31:14;;;;;;;4.10;3.00;;;;;;;22.92;38.83;101190.15;1727534;81;25906;-68
2022/10/10 11:33:46;;;;;;;3.87;2.70;;;;;;;22.46;40.13;101189.63;1730581;82;25532;-69
2022/10/10 11:36:24;;;;;;;4.25;2.50;;;;;;;22.18;39.53;101183.80;1725735;83;25815;-69
2022/10/10 11:38:57;;;;;;;5.10;2.92;;;;;;;21.86;40.06;101176.33;1725805;82;25397;-68
2022/10/10 11:41:44;;;;;;;4.85;2.83;;;;;;;21.74;40.42;101179.25;1708674;82;27425;-70
2022/10/10 11:44:20;;;;;;;3.40;2.62;;;;;;;21.91;41.23;101173.27;1688503;83;27315;-68
2022/10/10 11:46:55;;;;;;;6.40;3.02;;;;;;;22.18;41.74;101160.38;1701232;84;25388;-69
2022/10/10 11:49:54;;;;;;;3.92;2.77;;;;;;;22.59;41.02;101161.27;1702009;84;25554;-70
2022/10/10 11:52:47;;;;;;;3.42;2.60;;;;;;;22.53;39.27;101160.02;1702245;84;25546;-67
2022/10/10 11:55:34;;;;;;;5.30;3.00;;;;;;;22.38;39.40;101158.98;1725344;82;27756;-68
2022/10/10 11:58:10;;;;;;;4.50;2.70;;;;;;;22.17;38.08;101157.43;1724799;83;25780;-69
2022/10/10 12:00:49;;;;;;;4.08;2.83;;;;;;;21.82;40.10;101156.98;1725297;83;25610;-69
2022/10/10 12:03:16;;;;;;;6.90;3.30;;;;;;;21.90;39.40;101142.78;1725424;83;25481;-68
2022/10/10 12:05:55;;;;;;;3.27;2.65;;;;;;;22.10;41.53;101131.14;1725321;83;25469;-69